createdAt,value
2022-11-03T00:01:26.973Z,98614.66
2022-11-03T00:04:28.546Z,98621.78
2022-11-03T00:07:30.225Z,98628.97
2022-11-03T00:10:33.057Z,98627.16
2022-11-03T00:13:35.125Z,98609.22
2022-11-03T00:16:36.938Z,98601.16
2022-11-03T00:19:38.602Z,98597.50
2022-11-03T00:22:40.268Z,98604.44
2022-11-03T00:25:43.092Z,98602.72
2022-11-03T00:28:45.559Z,98590.00
2022-11-03T00:31:47.073Z,98598.75
2022-11-03T00:34:48.740Z,98589.91
2022-11-03T00:37:50.240Z,98590.84
2022-11-03T00:40:56.475Z,98585.38
2022-11-03T00:43:58.077Z,98585.06
2022-11-03T00:46:59.800Z,98572.44
2022-11-03T00:50:01.483Z,98583.00
2022-11-03T00:53:03.814Z,98571.75
2022-11-03T00:56:08.126Z,98564.69
2022-11-03T00:59:12.326Z,98574.28
2022-11-03T01:02:14.167Z,98567.09
2022-11-03T01:05:34.426Z,98559.72
2022-11-03T01:08:38.861Z,98561.53
2022-11-03T01:11:44.863Z,98557.06
2022-11-03T01:14:47.438Z,98557.94
2022-11-03T01:17:49.091Z,98549.34
2022-11-03T01:20:54.392Z,98539.53
2022-11-03T01:23:56.083Z,98533.41
2022-11-03T01:26:59.223Z,98529.22
2022-11-03T01:30:03.109Z,98522.94
2022-11-03T01:33:04.871Z,98525.56
2022-11-03T01:36:06.885Z,98514.97
2022-11-03T01:39:10.213Z,98524.63
2022-11-03T01:42:14.540Z,98529.16
2022-11-03T01:45:16.305Z,98514.94
2022-11-03T01:48:18.945Z,98498.03
2022-11-03T01:51:22.371Z,98506.94
2022-11-03T01:54:26.727Z,98502.66
2022-11-03T01:57:33.506Z,98492.28
2022-11-03T02:00:35.731Z,98491.50
2022-11-03T02:03:39.523Z,98493.31
2022-11-03T02:06:41.065Z,98493.47
2022-11-03T02:09:42.634Z,98490.88
2022-11-03T02:12:45.603Z,98500.78
2022-11-03T02:15:47.854Z,98496.56
2022-11-03T02:18:49.781Z,98511.91
2022-11-03T02:21:56.882Z,98499.69
2022-11-03T02:25:02.755Z,98503.47
2022-11-03T02:28:06.479Z,98503.78
2022-11-03T02:31:15.272Z,98502.25
2022-11-03T02:34:19.793Z,98499.00
2022-11-03T02:37:22.705Z,98494.69
2022-11-03T02:40:26.400Z,98489.44
2022-11-03T02:43:29.591Z,98484.25
2022-11-03T02:46:32.594Z,98480.75
2022-11-03T02:49:38.134Z,98474.63
2022-11-03T02:52:40.723Z,98460.34
2022-11-03T02:55:46.099Z,98451.44
2022-11-03T02:58:53.166Z,98445.97
2022-11-03T03:01:58.763Z,98441.38
2022-11-03T03:05:01.907Z,98447.31
2022-11-03T03:08:05.229Z,98448.94
2022-11-03T03:11:08.339Z,98442.75
2022-11-03T03:14:12.890Z,98444.47
2022-11-03T03:17:17.694Z,98448.56
2022-11-03T03:20:20.644Z,98437.63
2022-11-03T03:23:23.349Z,98430.50
2022-11-03T03:26:26.343Z,98429.41
2022-11-03T03:29:31.769Z,98425.81
2022-11-03T03:32:36.193Z,98418.69
2022-11-03T03:35:42.703Z,98418.41
2022-11-03T03:38:46.310Z,98410.41
2022-11-03T03:41:48.448Z,98400.63
2022-11-03T03:44:52.576Z,98405.03
2022-11-03T03:47:57.664Z,98399.69
2022-11-03T03:51:00.822Z,98392.41
2022-11-03T03:54:02.449Z,98380.97
2022-11-03T03:57:04.919Z,98384.41
2022-11-03T04:00:09.231Z,98376.50
2022-11-03T04:03:14.011Z,98372.22
2022-11-03T04:06:15.599Z,98373.25
2022-11-03T04:09:17.165Z,98381.44
2022-11-03T04:12:37.406Z,98374.41
2022-11-03T04:15:52.695Z,98373.69
2022-11-03T04:19:12.691Z,98375.56
2022-11-03T04:22:17.510Z,98359.00
2022-11-03T04:25:19.083Z,98360.69
2022-11-03T04:28:21.411Z,98352.81
2022-11-03T04:31:24.326Z,98346.63
2022-11-03T04:34:25.993Z,98351.09
2022-11-03T04:37:28.504Z,98345.69
2022-11-03T04:40:30.385Z,98343.91
2022-11-03T04:43:33.828Z,98333.16
2022-11-03T04:46:36.842Z,98332.13
2022-11-03T04:49:38.698Z,98329.56
2022-11-03T04:52:40.346Z,98321.56
2022-11-03T04:55:42.230Z,98311.88
2022-11-03T04:58:43.907Z,98314.38
2022-11-03T05:01:47.693Z,98307.97
2022-11-03T05:04:49.444Z,98310.72
2022-11-03T05:07:52.118Z,98302.81
2022-11-03T05:10:53.682Z,98302.00
2022-11-03T05:13:58.124Z,98300.28
2022-11-03T05:17:01.820Z,98301.22
2022-11-03T05:20:03.804Z,98301.34
2022-11-03T05:23:06.346Z,98296.16
2022-11-03T05:26:12.357Z,98283.94
2022-11-03T05:29:15.849Z,98292.00
2022-11-03T05:32:21.499Z,98290.25
2022-11-03T05:35:23.324Z,98285.00
2022-11-03T05:38:25.753Z,98278.84
2022-11-03T05:41:29.249Z,98272.56
2022-11-03T05:44:33.989Z,98268.19
2022-11-03T05:47:38.974Z,98271.69
2022-11-03T05:50:41.623Z,98265.47
2022-11-03T05:53:43.497Z,98266.41
2022-11-03T05:56:45.080Z,98262.81
2022-11-03T05:59:48.091Z,98262.78
2022-11-03T06:02:51.081Z,98264.47
2022-11-03T06:05:53.569Z,98264.53
2022-11-03T06:08:56.431Z,98265.44
2022-11-03T06:11:59.201Z,98254.84
2022-11-03T06:15:00.753Z,98261.09
2022-11-03T06:18:10.717Z,98262.03
2022-11-03T06:21:14.015Z,98262.03
2022-11-03T06:24:17.993Z,98256.63
2022-11-03T06:27:22.046Z,98254.91
2022-11-03T06:30:25.473Z,98255.06
2022-11-03T06:33:29.600Z,98246.94
2022-11-03T06:36:32.304Z,98251.28
2022-11-03T06:39:34.161Z,98253.06
2022-11-03T06:42:36.240Z,98252.19
2022-11-03T06:45:37.794Z,98249.50
2022-11-03T06:48:40.782Z,98242.25
2022-11-03T06:51:44.933Z,98236.78
2022-11-03T06:54:48.764Z,98237.63
2022-11-03T06:57:52.956Z,98238.44
2022-11-03T07:01:02.638Z,98230.53
2022-11-03T07:04:13.184Z,98230.59
2022-11-03T07:07:14.708Z,98220.63
2022-11-03T07:10:16.540Z,98222.34
2022-11-03T07:13:19.801Z,98223.28
2022-11-03T07:16:26.180Z,98226.84
2022-11-03T07:19:30.142Z,98221.28
2022-11-03T07:22:31.623Z,98217.59
2022-11-03T07:25:33.181Z,98215.94
2022-11-03T07:28:35.730Z,98211.22
2022-11-03T07:31:37.390Z,98204.75
2022-11-03T07:34:40.593Z,98191.28
2022-11-03T07:37:42.240Z,98187.56
2022-11-03T07:40:43.799Z,98196.34
2022-11-03T07:43:50.299Z,98190.72
2022-11-03T07:46:51.796Z,98182.59
2022-11-03T07:49:55.005Z,98178.13
2022-11-03T07:52:56.636Z,98179.84
2022-11-03T07:55:58.729Z,98179.84
2022-11-03T07:59:01.809Z,98174.31
2022-11-03T08:02:15.120Z,98168.69
2022-11-03T08:08:19.906Z,98168.88
2022-11-03T08:11:26.128Z,98162.50
2022-11-03T08:14:31.690Z,98147.28
2022-11-03T08:17:33.451Z,98144.47
2022-11-03T08:20:36.636Z,98137.13
2022-11-03T08:23:44.623Z,98138.00
2022-11-03T08:26:49.420Z,98131.00
2022-11-03T08:29:51.139Z,98130.88
2022-11-03T08:32:52.814Z,98118.50
2022-11-03T08:35:55.755Z,98120.03
2022-11-03T08:38:57.351Z,98117.38
2022-11-03T08:41:59.038Z,98118.09
2022-11-03T08:45:00.575Z,98117.69
2022-11-03T08:48:02.212Z,98109.94
2022-11-03T08:51:05.472Z,98102.16
2022-11-03T08:54:07.058Z,98094.66
2022-11-03T08:57:09.033Z,98091.81
2022-11-03T09:00:11.546Z,98087.28
2022-11-03T09:03:13.161Z,98079.19
2022-11-03T09:06:16.576Z,98076.28
2022-11-03T09:12:40.087Z,98064.63
2022-11-03T09:15:41.665Z,98056.91
2022-11-03T09:18:43.807Z,98023.59
2022-11-03T09:21:46.647Z,98022.69
2022-11-03T09:24:48.103Z,98043.72
2022-11-03T09:27:49.796Z,98025.72
2022-11-03T09:30:51.455Z,98022.28
2022-11-03T09:33:52.900Z,98033.56
2022-11-03T09:36:59.274Z,98029.09
2022-11-03T09:40:02.156Z,98012.47
2022-11-03T09:43:03.753Z,98030.19
2022-11-03T09:46:05.750Z,98040.72
2022-11-03T09:49:08.348Z,98028.81
2022-11-03T09:52:21.172Z,98021.34
2022-11-03T09:55:24.099Z,98019.16
2022-11-03T09:58:26.240Z,98009.09
2022-11-03T10:01:27.930Z,98017.59
2022-11-03T10:04:30.064Z,98019.06
2022-11-03T10:07:32.995Z,98019.59
2022-11-03T10:10:34.886Z,98026.56
2022-11-03T10:13:37.869Z,98025.41
2022-11-03T10:16:39.998Z,98013.69
2022-11-03T10:19:41.469Z,98009.72
2022-11-03T10:22:45.575Z,97987.91
2022-11-03T10:25:47.127Z,97980.38
2022-11-03T10:28:57.180Z,97980.78
2022-11-03T10:31:58.907Z,97970.72
2022-11-03T10:35:00.430Z,97969.47
2022-11-03T10:38:20.412Z,97976.81
2022-11-03T10:41:23.150Z,97966.53
2022-11-03T10:44:26.789Z,97966.34
2022-11-03T10:47:32.828Z,97958.31
2022-11-03T10:50:34.419Z,97949.84
2022-11-03T10:53:37.662Z,97947.94
2022-11-03T10:56:39.501Z,97950.75
2022-11-03T10:59:41.427Z,97933.00
2022-11-03T11:02:43.844Z,97936.53
2022-11-03T11:05:46.318Z,97924.25
2022-11-03T11:08:50.646Z,97914.41
2022-11-03T11:11:59.258Z,97908.09
2022-11-03T11:15:01.415Z,97909.75
2022-11-03T11:18:04.654Z,97910.22
2022-11-03T11:21:34.809Z,97910.97
2022-11-03T11:24:58.075Z,97893.97
2022-11-03T11:28:12.071Z,97885.19
2022-11-03T11:31:30.129Z,97877.19
2022-11-03T11:34:41.027Z,97872.25
2022-11-03T11:37:42.633Z,97876.72
2022-11-03T11:40:54.800Z,97870.59
2022-11-03T11:44:23.650Z,97862.78
2022-11-03T11:47:30.553Z,97847.59
2022-11-03T11:50:32.354Z,97852.00
2022-11-03T11:53:37.668Z,97844.19
2022-11-03T11:56:43.005Z,97829.84
2022-11-03T11:59:46.425Z,97830.06
2022-11-03T12:02:49.049Z,97828.25
2022-11-03T12:05:50.822Z,97814.22
2022-11-03T12:09:03.504Z,97799.81
2022-11-03T12:12:08.983Z,97797.03
2022-11-03T12:15:29.267Z,97788.94
2022-11-03T12:18:35.152Z,97779.94
2022-11-03T12:21:47.461Z,97778.03
2022-11-03T12:24:50.386Z,97763.63
2022-11-03T12:27:53.882Z,97754.66
2022-11-03T12:30:55.526Z,97756.47
2022-11-03T12:33:57.196Z,97737.94
2022-11-03T12:36:58.874Z,97737.19
2022-11-03T12:40:00.788Z,97734.84
2022-11-03T12:43:04.036Z,97727.88
2022-11-03T12:46:05.869Z,97727.94
2022-11-03T12:49:07.422Z,97713.75
2022-11-03T12:52:10.640Z,97719.94
2022-11-03T12:55:12.667Z,97706.59
2022-11-03T12:58:17.362Z,97705.56
2022-11-03T13:01:19.109Z,97711.75
2022-11-03T13:04:21.299Z,97716.25
2022-11-03T13:07:27.929Z,97705.72
2022-11-03T13:10:30.713Z,97691.50
2022-11-03T13:13:33.626Z,97689.78
2022-11-03T13:16:35.793Z,97665.09
2022-11-03T13:19:37.432Z,97670.13
2022-11-03T13:22:39.748Z,97662.22
2022-11-03T13:25:41.320Z,97657.19
2022-11-03T13:28:44.449Z,97657.94
2022-11-03T13:31:46.022Z,97646.84
2022-11-03T13:34:47.512Z,97644.34
2022-11-03T13:37:49.872Z,97640.50
2022-11-03T13:41:03.615Z,97633.97
2022-11-03T13:44:20.022Z,97627.56
2022-11-03T13:47:38.866Z,97632.06
2022-11-03T13:50:43.239Z,97608.56
2022-11-03T14:00:29.289Z,97611.13
2022-11-03T14:06:52.512Z,97592.09
2022-11-03T14:09:55.865Z,97586.94
2022-11-03T14:12:59.609Z,97575.41
2022-11-03T14:16:02.442Z,97562.16
2022-11-03T14:19:04.211Z,97563.22
2022-11-03T14:22:05.734Z,97550.16
2022-11-03T14:25:09.773Z,97540.66
2022-11-03T14:28:11.449Z,97525.59
2022-11-03T14:31:14.832Z,97511.56
2022-11-03T14:34:16.305Z,97503.66
2022-11-03T14:37:18.043Z,97515.31
2022-11-03T14:40:38.078Z,97509.31
2022-11-03T14:43:39.683Z,97509.44
2022-11-03T14:46:42.580Z,97507.72
2022-11-03T14:49:45.039Z,97494.53
2022-11-03T14:52:46.501Z,97483.75
2022-11-03T14:55:48.145Z,97473.41
2022-11-03T14:58:50.335Z,97475.97
2022-11-03T15:01:53.672Z,97470.94
2022-11-03T15:04:55.341Z,97471.91
2022-11-03T15:07:56.890Z,97467.41
2022-11-03T15:10:58.458Z,97459.41
2022-11-03T15:14:00.332Z,97454.19
2022-11-03T15:17:03.442Z,97447.97
2022-11-03T15:20:05.559Z,97454.34
2022-11-03T15:26:28.835Z,97436.00
2022-11-03T15:29:30.467Z,97435.25
2022-11-03T15:32:36.423Z,97441.56
2022-11-03T15:35:38.423Z,97434.47
2022-11-03T15:38:40.152Z,97429.25
2022-11-03T15:41:41.813Z,97423.16
2022-11-03T15:44:43.406Z,97421.34
2022-11-03T15:47:46.285Z,97409.06
2022-11-03T15:50:47.769Z,97401.28
2022-11-03T15:53:52.308Z,97394.84
2022-11-03T15:56:58.287Z,97387.81
2022-11-03T16:00:00.222Z,97378.94
2022-11-03T16:03:03.350Z,97376.28
2022-11-03T16:06:05.156Z,97377.03
2022-11-03T16:09:06.714Z,97362.94
2022-11-03T16:12:08.868Z,97356.72
2022-11-03T16:15:10.742Z,97344.34
2022-11-03T16:18:14.097Z,97346.25
2022-11-03T16:21:15.723Z,97348.91
2022-11-03T16:24:17.494Z,97347.09
2022-11-03T16:27:19.059Z,97338.25
2022-11-03T16:30:20.698Z,97333.00
2022-11-03T16:33:23.636Z,97324.25
2022-11-03T16:36:25.238Z,97322.56
2022-11-03T16:39:27.050Z,97322.44
2022-11-03T16:42:29.184Z,97316.34
2022-11-03T16:45:36.399Z,97318.28
2022-11-03T16:48:40.738Z,97309.31
2022-11-03T16:51:42.284Z,97300.34
2022-11-03T16:54:44.488Z,97305.69
2022-11-03T16:57:45.995Z,97296.19
2022-11-03T17:00:47.598Z,97287.22
2022-11-03T17:03:52.536Z,97280.91
2022-11-03T17:06:54.147Z,97273.88
2022-11-03T17:09:59.561Z,97267.78
2022-11-03T17:13:03.044Z,97276.66
2022-11-03T17:16:06.586Z,97266.84
2022-11-03T17:19:10.619Z,97266.06
2022-11-03T17:22:12.290Z,97247.38
2022-11-03T17:25:13.983Z,97244.50
2022-11-03T17:28:18.957Z,97248.66
2022-11-03T17:31:20.713Z,97250.38
2022-11-03T17:34:25.116Z,97235.31
2022-11-03T17:37:27.411Z,97233.72
2022-11-03T17:40:32.240Z,97232.88
2022-11-03T17:43:37.998Z,97226.69
2022-11-03T17:46:39.625Z,97222.19
2022-11-03T17:49:42.845Z,97226.47
2022-11-03T17:52:46.029Z,97227.31
2022-11-03T17:56:02.873Z,97218.44
2022-11-03T17:59:13.347Z,97210.56
2022-11-03T18:02:17.612Z,97223.16
2022-11-03T18:05:23.643Z,97220.28
2022-11-03T18:08:25.192Z,97215.03
2022-11-03T18:11:48.836Z,97219.53
2022-11-03T18:14:50.490Z,97210.78
2022-11-03T18:17:52.188Z,97213.22
2022-11-03T18:20:55.349Z,97214.69
2022-11-03T18:23:57.250Z,97216.63
2022-11-03T18:26:58.871Z,97204.25
2022-11-03T18:30:00.516Z,97208.84
2022-11-03T18:33:02.023Z,97194.84
2022-11-03T18:36:06.370Z,97201.16
2022-11-03T18:39:11.407Z,97198.28
2022-11-03T18:42:13.358Z,97196.25
2022-11-03T18:45:16.002Z,97191.97
2022-11-03T18:48:20.606Z,97184.09
2022-11-03T18:51:23.560Z,97168.28
2022-11-03T18:54:25.219Z,97168.50
2022-11-03T18:57:26.942Z,97174.06
2022-11-03T19:00:28.545Z,97166.16
2022-11-03T19:03:30.064Z,97150.25
2022-11-03T19:06:34.072Z,97150.25
2022-11-03T19:09:35.777Z,97140.09
2022-11-03T19:12:39.265Z,97136.59
2022-11-03T19:15:41.122Z,97127.97
2022-11-03T19:18:44.102Z,97129.00
2022-11-03T19:21:50.629Z,97117.94
2022-11-03T19:24:52.217Z,97101.63
2022-11-03T19:27:53.849Z,97118.25
2022-11-03T19:30:57.994Z,97100.78
2022-11-03T19:34:00.317Z,97087.88
2022-11-03T19:37:03.796Z,97089.91
2022-11-03T19:40:08.902Z,97090.19
2022-11-03T19:43:10.680Z,97089.25
2022-11-03T19:46:17.822Z,97079.75
2022-11-03T19:49:19.331Z,97066.00
2022-11-03T19:52:24.985Z,97058.31
2022-11-03T19:55:28.843Z,97058.44
2022-11-03T19:58:30.746Z,97060.25
2022-11-03T20:01:32.335Z,97052.47
2022-11-03T20:04:34.144Z,97044.66
2022-11-03T20:07:37.905Z,97050.75
2022-11-03T20:10:39.423Z,97048.28
2022-11-03T20:13:42.782Z,97042.22
2022-11-03T20:16:44.460Z,97045.50
2022-11-03T20:19:46.061Z,97039.31
2022-11-03T20:22:51.289Z,97046.16
2022-11-03T20:25:53.564Z,97041.91
2022-11-03T20:28:56.185Z,97027.81
2022-11-03T20:31:57.819Z,97025.16
2022-11-03T20:34:59.598Z,97034.00
2022-11-03T20:38:02.633Z,97032.28
2022-11-03T20:41:06.627Z,97023.13
2022-11-03T20:44:09.006Z,97030.91
2022-11-03T20:47:12.383Z,97018.22
2022-11-03T20:50:15.268Z,97036.69
2022-11-03T20:53:19.728Z,97032.94
2022-11-03T20:56:22.138Z,97038.50
2022-11-03T20:59:24.750Z,97045.53
2022-11-03T21:02:26.949Z,97046.56
2022-11-03T21:05:29.161Z,97039.66
2022-11-03T21:08:32.209Z,97047.88
2022-11-03T21:11:36.820Z,97038.38
2022-11-03T21:14:38.332Z,97050.22
2022-11-03T21:17:58.551Z,97053.84
2022-11-03T21:21:00.466Z,97045.22
2022-11-03T21:24:03.435Z,97045.53
2022-11-03T21:27:04.892Z,97045.53
2022-11-03T21:30:07.677Z,97031.34
2022-11-03T21:33:09.540Z,97035.72
2022-11-03T21:36:11.199Z,97015.91
2022-11-03T21:39:14.411Z,97013.34
2022-11-03T21:42:35.227Z,97015.13
2022-11-03T21:45:36.910Z,97005.25
2022-11-03T21:48:57.779Z,96999.06
2022-11-03T21:51:59.463Z,97000.09
2022-11-03T21:55:03.050Z,96997.25
2022-11-03T21:58:05.036Z,96990.09
2022-11-03T22:01:06.953Z,96972.41
2022-11-03T22:04:08.626Z,96964.50
2022-11-03T22:07:10.703Z,96954.91
2022-11-03T22:10:13.737Z,96953.09
2022-11-03T22:13:15.233Z,96940.63
2022-11-03T22:16:35.246Z,96921.84
2022-11-03T22:19:55.323Z,96925.41
2022-11-03T22:23:18.393Z,96918.63
2022-11-03T22:26:39.951Z,96912.22
2022-11-03T22:30:00.141Z,96910.00
2022-11-03T22:33:01.754Z,96909.56
2022-11-03T22:36:22.152Z,96921.56
2022-11-03T22:39:42.819Z,96915.63
2022-11-03T22:43:07.991Z,96919.13
2022-11-03T22:46:10.594Z,96906.66
2022-11-03T22:49:12.307Z,96910.78
2022-11-03T22:52:14.194Z,96907.03
2022-11-03T22:55:15.774Z,96912.38
2022-11-03T22:58:18.937Z,96915.28
2022-11-03T23:01:21.473Z,96917.94
2022-11-03T23:04:23.333Z,96916.97
2022-11-03T23:07:30.848Z,96914.03
2022-11-03T23:10:34.078Z,96916.69
2022-11-03T23:13:36.924Z,96912.31
2022-11-03T23:16:39.451Z,96915.72
2022-11-03T23:19:59.461Z,96921.25
2022-11-03T23:23:01.170Z,96924.84
2022-11-03T23:26:02.798Z,96924.25
2022-11-03T23:29:08.554Z,96912.00
2022-11-03T23:32:10.098Z,96913.81
2022-11-03T23:35:11.663Z,96907.84
2022-11-03T23:38:13.275Z,96903.38
2022-11-03T23:41:16.050Z,96905.38
2022-11-03T23:44:19.036Z,96901.03
2022-11-03T23:47:39.116Z,96900.28
2022-11-03T23:50:43.442Z,96896.66
2022-11-03T23:53:45.612Z,96889.63
2022-11-03T23:57:06.041Z,96889.63
